Terminal Aerodrome Forecast
Issued by NWS

Home | Current Version | Previous Version | Text Only | Print | Product List | Glossary On
Versions: 1 2 3 4 5 6 7 8 9 10 11 12 13 14
000
FTUS46 KPDT 221100
TAFALW
TAF
KALW 221120Z 2212/2312 19008KT P6SM FEW070
     FM221600 23008KT P6SM SCT070 SCT100
     FM222300 23005KT P6SM -SHRA BKN070
     FM230300 12007KT P6SM VCSH BKN080
     FM230700 18007KT P6SM SCT080=

USA.gov is the U.S. government's official web portal to all federal, state and local government web resources and services.